Tropical Cyclones
[Index]
Main Index Home Page Stock Weather Photos Extreme Storms Discussion Storm News and Storm Chasing Reports Tropical Cyclones / Hurricanes / Typhoons Weather Data and Links Wild Fires / Bushfires Weather Observation Techniques Weather Picture Catalogue Tornado Pictures and Reports Stock Video Footage and DVDs for sale
Season 2003-2004 Tropical Cyclone GAFILO Track Map
Season 2003-2004 Summaries: [BoM-AU] [JTWC-AU] [JTWC-SIO] [JTWC-SPAC] [JTWC-SH]
<<- Previous TC | JTWC 2003-2004 Season | Next TC ->>

click for intensity scale information  Lat/long Grid: Show Hide

 Date Labels: Show Hide

Joint Typhoon Warning Centre Cyclone Data

Name: GAFILO

01 Mar 2004 06:00 UTC to 11 Mar 2004 12:00 UTC

    date/time    lat    long     hPa   cat  kts
2004-03-01 06   11.6    72.2    1004         20          
2004-03-01 12   11.6    71.8    1004         20          
2004-03-01 18   11.7    71.3    1004         20          
2004-03-02 00   12.2    70.9    1002         25          
2004-03-02 06   13.1    70.6    1002         25          
2004-03-02 12   13.8    69.8    1000         30          
2004-03-02 18   14.1    68.2    1000         30          
2004-03-03 00   13.9    66.2    1000         35          
2004-03-03 06   13.4    64.0     991    1    45          
2004-03-03 12   13.1    62.4     984    2    55          
2004-03-03 12   13.1    62.4     984    2    55          
2004-03-03 18   12.7    61.1     976    2    65          
2004-03-03 18   12.7    61.1     976    2    65          
2004-03-04 00   12.3    60.1     976    2    65          
2004-03-04 00   12.3    60.1     976    2    65          
2004-03-04 06   12.2    59.4     976    2    65          
2004-03-04 06   12.2    59.4     976    2    65          
2004-03-04 12   12.5    58.7     967    3    75          
2004-03-04 12   12.5    58.7     967    3    75          
2004-03-04 18   12.9    58.0     967    3    75          
2004-03-04 18   12.9    58.0     967    3    75          
2004-03-05 00   13.2    57.4     967    3    75          
2004-03-05 00   13.2    57.4     967    3    75          
2004-03-05 06   13.5    56.7     954    3    90          
2004-03-05 06   13.5    56.7     954    3    90          
2004-03-05 12   13.9    56.0     916    5   125          
2004-03-05 12   13.9    56.0     916    5   125          
2004-03-05 12   13.9    56.0     916    5   125          
2004-03-05 18   14.2    55.2     916    5   125          
2004-03-05 18   14.2    55.2     916    5   125          
2004-03-05 18   14.2    55.2     916    5   125          
2004-03-06 00   14.5    54.3     904    5   135          
2004-03-06 00   14.5    54.3     904    5   135          
2004-03-06 00   14.5    54.3     904    5   135          
2004-03-06 06   14.7    53.5     898    5   140          
2004-03-06 06   14.7    53.5     898    5   140          
2004-03-06 06   14.7    53.5     898    5   140          
2004-03-06 12   14.9    52.6     898    5   140          
2004-03-06 12   14.9    52.6     898    5   140          
2004-03-06 12   14.9    52.6     898    5   140          
2004-03-06 18   15.0    51.6     898    5   140          
2004-03-06 18   15.0    51.6     898    5   140          
2004-03-06 18   15.0    51.6     898    5   140          
2004-03-07 00   15.0    50.5     910    5   130          
2004-03-07 00   15.0    50.5     910    5   130          
2004-03-07 00   15.0    50.5     910    5   130          
2004-03-07 06   15.1    49.2     927    4   115          
2004-03-07 06   15.1    49.2     927    4   115          
2004-03-07 12   15.7    47.9     954    3    90          
2004-03-07 12   15.7    47.9     954    3    90          
2004-03-07 18   16.3    46.6     967    3    75          
2004-03-07 18   16.3    46.6     967    3    75          
2004-03-08 00   17.0    45.3     976    2    65          
2004-03-08 00   17.0    45.3     976    2    65          
2004-03-08 06   17.8    44.1     976    2    65          
2004-03-08 06   17.8    44.1     976    2    65          
2004-03-08 12   18.4    43.3     976    2    65          
2004-03-08 12   18.4    43.3     976    2    65          
2004-03-08 18   18.8    42.8     976    2    65          
2004-03-08 18   18.8    42.8     976    2    65          
2004-03-09 00   19.2    42.5     976    2    65          
2004-03-09 00   19.2    42.5     976    2    65          
2004-03-09 06   19.6    42.2     976    2    65          
2004-03-09 06   19.6    42.2     976    2    65          
2004-03-09 12   20.3    42.6     980    2    60          
2004-03-09 12   20.3    42.6     980    2    60          
2004-03-09 18   20.9    43.2     980    2    60          
2004-03-09 18   20.9    43.2     980    2    60          
2004-03-10 00   21.7    44.0     984    2    55          
2004-03-10 00   21.7    44.0     984    2    55          
2004-03-10 06   22.4    45.0     991    1    45          
2004-03-10 12   23.1    45.3     994    1    40          
2004-03-10 18   23.4    45.8     994    1    40          
2004-03-11 00   23.7    46.3    1000         30          
2004-03-11 06   24.1    46.5    1000         30          
2004-03-11 12   24.3    46.7    1000         30          
Winds are 1-min average.

Tropical cyclone tracks developed by Michael Bath using data from the Joint Typhoon Warning Centre Best Tracks and Google Maps.


[Australian Severe Weather index] [Copyright Notice] [Email Contacts] [Search This Site] [Privacy Policy]
Document: tropical_cyclone_gafilo.htm Updated: 28 June 2017